createdAt,value
2022-09-23T00:01:07.851Z,100.00
2022-09-23T00:03:38.224Z,100.00
2022-09-23T00:06:08.384Z,100.00
2022-09-23T00:08:38.629Z,100.00
2022-09-23T00:11:07.797Z,100.00
2022-09-23T00:13:41.773Z,100.00
2022-09-23T00:16:12.863Z,100.00
2022-09-23T00:18:42.875Z,100.00
2022-09-23T00:21:12.757Z,100.00
2022-09-23T00:23:43.931Z,100.00
2022-09-23T00:26:15.812Z,100.00
2022-09-23T00:28:44.918Z,100.00
2022-09-23T00:31:15.359Z,100.00
2022-09-23T00:33:43.936Z,100.00
2022-09-23T00:36:15.757Z,100.00
2022-09-23T00:38:46.302Z,100.00
2022-09-23T00:41:16.156Z,100.00
2022-09-23T00:43:46.870Z,100.00
2022-09-23T00:46:19.735Z,100.00
2022-09-23T00:48:49.640Z,100.00
2022-09-23T00:51:22.227Z,100.00
2022-09-23T00:53:53.331Z,100.00
2022-09-23T00:56:24.010Z,100.00
2022-09-23T00:58:52.383Z,100.00
2022-09-23T01:01:21.692Z,100.00
2022-09-23T01:03:51.239Z,100.00
2022-09-23T01:06:21.850Z,100.00
2022-09-23T01:08:51.964Z,100.00
2022-09-23T01:11:38.656Z,100.00
2022-09-23T01:14:37.489Z,100.00
2022-09-23T01:17:10.604Z,100.00
2022-09-23T01:19:59.778Z,100.00
2022-09-23T01:22:36.723Z,100.00
2022-09-23T01:25:26.509Z,100.00
2022-09-23T01:28:23.841Z,100.00
2022-09-23T01:30:58.250Z,100.00
2022-09-23T01:33:36.358Z,100.00
2022-09-23T01:36:11.941Z,100.00
2022-09-23T01:38:46.113Z,100.00
2022-09-23T01:41:25.486Z,100.00
2022-09-23T01:44:01.317Z,100.00
2022-09-23T01:46:36.530Z,100.00
2022-09-23T01:49:10.045Z,100.00
2022-09-23T01:51:41.839Z,100.00
2022-09-23T01:54:16.453Z,100.00
2022-09-23T01:56:52.440Z,100.00
2022-09-23T01:59:26.440Z,100.00
2022-09-23T02:02:01.033Z,100.00
2022-09-23T02:04:36.666Z,100.00
2022-09-23T02:07:11.360Z,100.00
2022-09-23T02:09:45.972Z,100.00
2022-09-23T02:12:18.753Z,100.00
2022-09-23T02:14:48.695Z,100.00
2022-09-23T02:17:25.567Z,100.00
2022-09-23T02:19:57.684Z,100.00
2022-09-23T02:22:29.689Z,100.00
2022-09-23T02:24:59.123Z,100.00
2022-09-23T02:27:33.156Z,100.00
2022-09-23T02:30:08.985Z,100.00
2022-09-23T02:32:46.368Z,100.00
2022-09-23T02:35:19.533Z,100.00
2022-09-23T02:37:55.608Z,100.00
2022-09-23T02:40:29.297Z,100.00
2022-09-23T02:43:10.397Z,100.00
2022-09-23T02:45:39.189Z,100.00
2022-09-23T02:48:14.759Z,100.00
2022-09-23T02:50:43.094Z,100.00
2022-09-23T02:53:11.985Z,100.00
2022-09-23T02:55:41.496Z,100.00
2022-09-23T02:58:14.055Z,100.00
2022-09-23T03:00:52.328Z,100.00
2022-09-23T03:03:37.640Z,100.00
2022-09-23T03:06:16.727Z,100.00
2022-09-23T03:08:53.451Z,100.00
2022-09-23T03:11:22.249Z,100.00
2022-09-23T03:14:05.136Z,100.00
2022-09-23T03:16:39.802Z,100.00
2022-09-23T03:19:21.485Z,100.00
2022-09-23T03:21:57.943Z,100.00
2022-09-23T03:24:27.296Z,100.00
2022-09-23T03:26:58.987Z,100.00
2022-09-23T03:29:28.920Z,100.00
2022-09-23T03:31:58.303Z,100.00
2022-09-23T03:34:30.781Z,100.00
2022-09-23T03:37:05.131Z,100.00
2022-09-23T03:39:40.269Z,100.00
2022-09-23T03:42:16.930Z,100.00
2022-09-23T03:44:47.098Z,100.00
2022-09-23T03:47:16.778Z,100.00
2022-09-23T03:49:49.306Z,100.00
2022-09-23T03:52:17.938Z,100.00
2022-09-23T03:54:46.412Z,100.00
2022-09-23T03:57:15.280Z,100.00
2022-09-23T03:59:43.703Z,100.00
2022-09-23T04:02:11.980Z,100.00
2022-09-23T04:04:41.397Z,100.00
2022-09-23T04:07:11.989Z,100.00
2022-09-23T04:09:40.399Z,100.00
2022-09-23T04:12:09.005Z,100.00
2022-09-23T04:14:37.305Z,100.00
2022-09-23T04:17:05.576Z,100.00
2022-09-23T04:19:33.673Z,100.00
2022-09-23T04:22:02.135Z,100.00
2022-09-23T04:24:31.898Z,100.00
2022-09-23T04:27:00.228Z,100.00
2022-09-23T04:29:28.678Z,100.00
2022-09-23T04:31:57.834Z,100.00
2022-09-23T04:34:25.936Z,100.00
2022-09-23T04:36:53.956Z,100.00
2022-09-23T04:39:22.001Z,100.00
2022-09-23T04:41:51.514Z,100.00
2022-09-23T04:44:21.151Z,100.00
2022-09-23T04:46:49.398Z,100.00
2022-09-23T04:49:18.489Z,100.00
2022-09-23T04:51:47.667Z,100.00
2022-09-23T04:54:15.990Z,100.00
2022-09-23T04:56:44.274Z,100.00
2022-09-23T04:59:13.697Z,100.00
2022-09-23T05:01:42.309Z,100.00
2022-09-23T05:04:14.064Z,100.00
2022-09-23T05:06:44.086Z,100.00
2022-09-23T05:09:17.602Z,100.00
2022-09-23T05:11:45.860Z,100.00
2022-09-23T05:14:15.421Z,100.00
2022-09-23T05:16:43.779Z,100.00
2022-09-23T05:19:13.640Z,100.00
2022-09-23T05:21:42.161Z,100.00
2022-09-23T05:24:10.879Z,100.00
2022-09-23T05:26:39.386Z,100.00
2022-09-23T05:29:07.889Z,100.00
2022-09-23T05:31:37.879Z,100.00
2022-09-23T05:34:06.997Z,100.00
2022-09-23T05:36:38.609Z,100.00
2022-09-23T05:39:08.853Z,100.00
2022-09-23T05:41:37.132Z,100.00
2022-09-23T05:44:05.715Z,100.00
2022-09-23T05:46:34.204Z,100.00
2022-09-23T05:49:04.464Z,100.00
2022-09-23T05:51:34.384Z,100.00
2022-09-23T05:54:04.353Z,100.00
2022-09-23T05:56:34.108Z,100.00
2022-09-23T05:59:03.707Z,100.00
2022-09-23T06:01:34.207Z,100.00
2022-09-23T06:04:06.091Z,100.00
2022-09-23T06:06:35.989Z,100.00
2022-09-23T06:09:05.116Z,100.00
2022-09-23T06:11:34.427Z,100.00
2022-09-23T06:14:03.314Z,100.00
2022-09-23T06:16:33.455Z,100.00
2022-09-23T06:19:06.441Z,100.00
2022-09-23T06:21:36.719Z,100.00
2022-09-23T06:24:05.222Z,100.00
2022-09-23T06:26:35.154Z,100.00
2022-09-23T06:29:04.636Z,100.00
2022-09-23T06:31:33.046Z,100.00
2022-09-23T06:34:10.760Z,100.00
2022-09-23T06:36:44.939Z,100.00
2022-09-23T06:39:14.933Z,100.00
2022-09-23T06:41:43.360Z,100.00
2022-09-23T06:44:11.490Z,100.00
2022-09-23T06:46:39.583Z,100.00
2022-09-23T06:49:08.156Z,100.00
2022-09-23T06:51:36.325Z,100.00
2022-09-23T06:54:06.011Z,100.00
2022-09-23T06:56:38.797Z,100.00
2022-09-23T06:59:08.417Z,100.00
2022-09-23T07:01:36.481Z,100.00
2022-09-23T07:04:05.106Z,100.00
2022-09-23T07:06:33.254Z,100.00
2022-09-23T07:09:01.853Z,100.00
2022-09-23T07:11:31.446Z,100.00
2022-09-23T07:14:01.904Z,100.00
2022-09-23T07:16:30.174Z,100.00
2022-09-23T07:18:58.377Z,100.00
2022-09-23T07:21:28.030Z,100.00
2022-09-23T07:23:58.128Z,100.00
2022-09-23T07:26:27.194Z,100.00
2022-09-23T07:29:04.706Z,100.00
2022-09-23T07:31:39.147Z,100.00
2022-09-23T07:34:08.271Z,100.00
2022-09-23T07:36:37.510Z,100.00
2022-09-23T07:39:05.789Z,100.00
2022-09-23T07:41:35.096Z,100.00
2022-09-23T07:44:06.363Z,100.00
2022-09-23T07:46:37.280Z,100.00
2022-09-23T07:49:08.107Z,100.00
2022-09-23T07:51:38.273Z,100.00
2022-09-23T07:54:08.797Z,100.00
2022-09-23T07:56:37.942Z,100.00
2022-09-23T07:59:09.341Z,100.00
2022-09-23T08:01:39.903Z,100.00
2022-09-23T08:04:10.375Z,100.00
2022-09-23T08:06:42.632Z,100.00
2022-09-23T08:09:11.446Z,100.00
2022-09-23T08:11:42.085Z,100.00
2022-09-23T08:14:13.645Z,100.00
2022-09-23T08:16:42.080Z,100.00
2022-09-23T08:19:10.531Z,100.00
2022-09-23T08:21:39.469Z,100.00
2022-09-23T08:24:08.146Z,100.00
2022-09-23T08:26:36.567Z,100.00
2022-09-23T08:29:04.801Z,100.00
2022-09-23T08:31:34.259Z,100.00
2022-09-23T08:34:02.611Z,100.00
2022-09-23T08:36:30.733Z,100.00
2022-09-23T08:38:58.815Z,100.00
2022-09-23T08:41:37.196Z,100.00
2022-09-23T08:44:13.831Z,100.00
2022-09-23T08:46:47.631Z,100.00
2022-09-23T08:49:24.968Z,100.00
2022-09-23T08:51:55.912Z,100.00
2022-09-23T08:54:26.877Z,100.00
2022-09-23T08:56:58.886Z,100.00
2022-09-23T08:59:31.788Z,100.00
2022-09-23T09:02:06.618Z,100.00
2022-09-23T09:04:44.431Z,100.00
2022-09-23T09:07:36.590Z,100.00
2022-09-23T09:10:11.824Z,96.51
2022-09-23T09:12:44.630Z,98.85
2022-09-23T09:15:15.154Z,97.26
2022-09-23T09:17:55.836Z,100.00
2022-09-23T09:20:26.366Z,96.32
2022-09-23T09:22:57.866Z,93.27
2022-09-23T09:25:41.183Z,95.05
2022-09-23T09:28:15.726Z,95.11
2022-09-23T09:30:48.521Z,91.68
2022-09-23T09:33:22.317Z,88.87
2022-09-23T09:36:08.957Z,89.41
2022-09-23T09:38:37.485Z,88.99
2022-09-23T09:41:13.800Z,87.01
2022-09-23T09:43:44.298Z,86.97
2022-09-23T09:46:24.502Z,85.88
2022-09-23T09:48:59.825Z,86.71
2022-09-23T09:51:30.138Z,87.84
2022-09-23T09:54:18.131Z,85.21
2022-09-23T09:59:23.453Z,83.03
2022-09-23T10:02:14.061Z,84.71
2022-09-23T10:04:44.342Z,82.21
2022-09-23T10:07:15.688Z,83.92
2022-09-23T10:09:51.101Z,81.39
2022-09-23T10:12:21.493Z,82.69
2022-09-23T10:14:51.892Z,81.31
2022-09-23T10:17:23.062Z,83.79
2022-09-23T10:20:00.832Z,80.33
2022-09-23T10:22:34.896Z,81.13
2022-09-23T10:25:08.836Z,81.18
2022-09-23T10:27:38.860Z,81.67
2022-09-23T10:30:22.352Z,81.69
2022-09-23T10:32:51.142Z,77.39
2022-09-23T10:35:22.687Z,76.00
2022-09-23T10:37:52.848Z,76.22
2022-09-23T10:40:45.971Z,78.71
2022-09-23T10:43:42.504Z,76.39
2022-09-23T10:46:36.117Z,76.65
2022-09-23T10:49:33.566Z,73.56
2022-09-23T10:52:36.137Z,75.04
2022-09-23T10:55:15.617Z,74.33
2022-09-23T10:58:04.328Z,73.11
2022-09-23T11:00:41.194Z,74.47
2022-09-23T11:03:40.382Z,73.39
2022-09-23T11:06:20.114Z,73.18
2022-09-23T11:09:00.181Z,73.47
2022-09-23T11:11:39.720Z,73.00
2022-09-23T11:14:40.921Z,75.41
2022-09-23T11:17:34.560Z,73.13
2022-09-23T11:20:32.726Z,71.68
2022-09-23T11:23:24.456Z,72.84
2022-09-23T11:26:07.396Z,73.46
2022-09-23T11:28:55.495Z,72.08
2022-09-23T11:31:36.477Z,73.74
2022-09-23T11:34:23.069Z,73.56
2022-09-23T11:36:57.993Z,72.20
2022-09-23T11:39:32.229Z,72.42
2022-09-23T11:42:03.664Z,74.08
2022-09-23T11:44:36.758Z,74.46
2022-09-23T11:47:10.008Z,73.43
2022-09-23T11:49:43.447Z,72.73
2022-09-23T11:52:19.593Z,72.26
2022-09-23T11:54:54.272Z,72.49
2022-09-23T11:57:32.798Z,71.45
2022-09-23T12:00:07.957Z,72.60
2022-09-23T12:03:04.796Z,71.79
2022-09-23T12:05:37.244Z,72.94
2022-09-23T12:08:17.944Z,73.40
2022-09-23T12:10:54.964Z,75.45
2022-09-23T12:13:34.969Z,72.62
2022-09-23T12:16:32.357Z,73.24
2022-09-23T12:19:14.928Z,72.29
2022-09-23T12:22:01.341Z,73.26
2022-09-23T12:24:55.739Z,71.75
2022-09-23T12:27:32.288Z,70.79
2022-09-23T12:30:04.581Z,71.33
2022-09-23T12:32:33.453Z,67.65
2022-09-23T12:35:02.842Z,65.64
2022-09-23T12:37:35.625Z,67.82
2022-09-23T12:40:07.837Z,64.60
2022-09-23T12:42:43.713Z,62.74
2022-09-23T12:45:38.994Z,65.42
2022-09-23T12:48:39.919Z,63.52
2022-09-23T12:51:17.596Z,62.62
2022-09-23T12:54:15.333Z,63.16
2022-09-23T12:57:10.374Z,64.54
2022-09-23T12:59:59.239Z,65.44
2022-09-23T13:02:33.299Z,64.96
2022-09-23T13:05:32.175Z,64.41
2022-09-23T13:08:04.144Z,59.90
2022-09-23T13:10:35.029Z,60.88
2022-09-23T13:13:04.012Z,62.15
2022-09-23T13:15:34.604Z,60.10
2022-09-23T13:18:39.138Z,62.08
2022-09-23T13:21:17.989Z,61.89
2022-09-23T13:24:18.070Z,61.49
2022-09-23T13:26:47.918Z,61.70
2022-09-23T13:29:21.244Z,60.37
2022-09-23T13:31:49.804Z,61.57
2022-09-23T13:34:24.119Z,61.97
2022-09-23T13:36:53.647Z,62.47
2022-09-23T13:39:24.629Z,63.55
2022-09-23T13:41:56.722Z,63.68
2022-09-23T13:44:25.000Z,64.49
2022-09-23T13:46:56.430Z,63.65
2022-09-23T13:49:29.325Z,63.21
2022-09-23T13:51:58.473Z,64.73
2022-09-23T13:54:32.245Z,65.47
2022-09-23T13:57:01.457Z,64.47
2022-09-23T13:59:31.712Z,64.42
2022-09-23T14:02:08.277Z,65.03
2022-09-23T14:04:38.017Z,62.46
2022-09-23T14:07:08.754Z,61.50
2022-09-23T14:09:39.202Z,63.36
2022-09-23T14:12:10.166Z,61.33
2022-09-23T14:14:40.834Z,62.25
2022-09-23T14:17:10.232Z,60.85
2022-09-23T14:19:39.828Z,62.04
2022-09-23T14:22:23.442Z,60.59
2022-09-23T14:24:52.464Z,62.59
2022-09-23T14:27:28.500Z,62.45
2022-09-23T14:29:57.269Z,61.21
2022-09-23T14:32:29.154Z,64.11
2022-09-23T14:35:17.716Z,61.88
2022-09-23T14:38:04.398Z,62.39
2022-09-23T14:40:34.310Z,63.34
2022-09-23T14:43:06.329Z,61.59
2022-09-23T14:45:38.262Z,61.78
2022-09-23T14:48:11.928Z,62.75
2022-09-23T14:50:48.577Z,61.61
2022-09-23T14:53:40.330Z,64.10
2022-09-23T14:56:17.704Z,61.04
2022-09-23T14:58:52.381Z,63.46
2022-09-23T15:01:39.740Z,64.69
2022-09-23T15:04:14.062Z,63.28
2022-09-23T15:06:47.747Z,61.21
2022-09-23T15:09:23.654Z,64.00
2022-09-23T15:11:59.158Z,64.10
2022-09-23T15:14:39.389Z,64.95
2022-09-23T15:17:17.931Z,63.56
2022-09-23T15:19:52.580Z,65.04
2022-09-23T15:22:22.420Z,65.99
2022-09-23T15:24:52.792Z,66.13
2022-09-23T15:27:41.695Z,65.89
2022-09-23T15:30:16.398Z,67.53
2022-09-23T15:32:45.378Z,68.98
2022-09-23T15:35:15.856Z,67.28
2022-09-23T15:37:49.595Z,68.43
2022-09-23T15:40:21.264Z,68.52
2022-09-23T15:42:51.645Z,66.85
2022-09-23T15:45:22.474Z,65.85
2022-09-23T15:47:52.383Z,67.70
2022-09-23T15:50:21.126Z,68.27
2022-09-23T15:52:50.540Z,67.04
2022-09-23T15:55:22.339Z,69.45
2022-09-23T15:57:50.585Z,68.61
2022-09-23T16:00:19.008Z,70.95
2022-09-23T16:02:49.250Z,70.98
2022-09-23T16:05:30.768Z,72.17
2022-09-23T16:08:04.918Z,72.22
2022-09-23T16:10:36.262Z,73.14
2022-09-23T16:13:07.850Z,74.28
2022-09-23T16:15:36.008Z,71.22
2022-09-23T16:18:07.210Z,71.70
2022-09-23T16:20:37.305Z,72.23
2022-09-23T16:23:08.851Z,74.90
2022-09-23T16:25:38.307Z,75.55
2022-09-23T16:28:06.761Z,75.39
2022-09-23T16:30:35.735Z,76.10
2022-09-23T16:33:03.958Z,76.68
2022-09-23T16:35:34.644Z,77.03
2022-09-23T16:38:02.732Z,77.18
2022-09-23T16:40:32.690Z,76.44
2022-09-23T16:43:02.364Z,75.36
2022-09-23T16:45:31.310Z,78.25
2022-09-23T16:47:59.535Z,78.06
2022-09-23T16:50:29.352Z,78.80
2022-09-23T16:52:57.777Z,80.29
2022-09-23T16:55:27.501Z,78.62
2022-09-23T16:57:57.363Z,80.47
2022-09-23T17:00:43.089Z,82.44
2022-09-23T17:03:30.799Z,86.43
2022-09-23T17:06:00.674Z,88.73
2022-09-23T17:08:31.090Z,90.64
2022-09-23T17:11:01.247Z,91.84
2022-09-23T17:13:32.466Z,93.19
2022-09-23T17:16:02.745Z,93.94
2022-09-23T17:18:33.673Z,95.64
2022-09-23T17:21:03.639Z,97.21
2022-09-23T17:23:32.660Z,97.17
2022-09-23T17:26:01.303Z,99.65
2022-09-23T17:28:30.706Z,100.00
2022-09-23T17:31:00.697Z,100.00
2022-09-23T17:33:30.733Z,99.13
2022-09-23T17:36:00.206Z,100.00
2022-09-23T17:38:29.567Z,100.00
2022-09-23T17:41:01.329Z,100.00
2022-09-23T17:43:31.669Z,100.00
2022-09-23T17:46:05.390Z,100.00
2022-09-23T17:48:35.270Z,100.00
2022-09-23T17:51:05.441Z,100.00
2022-09-23T17:53:37.399Z,100.00
2022-09-23T17:56:07.552Z,100.00
2022-09-23T17:58:38.472Z,100.00
2022-09-23T18:01:10.634Z,100.00
2022-09-23T18:03:43.527Z,100.00
2022-09-23T18:06:13.967Z,100.00
2022-09-23T18:08:43.670Z,100.00
2022-09-23T18:11:16.477Z,100.00
2022-09-23T18:13:47.961Z,100.00
2022-09-23T18:16:16.077Z,100.00
2022-09-23T18:18:44.701Z,100.00
2022-09-23T18:21:12.811Z,100.00
2022-09-23T18:23:40.868Z,100.00
2022-09-23T18:26:14.870Z,100.00
2022-09-23T18:28:43.602Z,100.00
2022-09-23T18:31:13.525Z,100.00
2022-09-23T18:33:42.182Z,100.00
2022-09-23T18:36:10.960Z,100.00
2022-09-23T18:38:39.906Z,100.00
2022-09-23T18:41:08.230Z,100.00
2022-09-23T18:43:40.732Z,100.00
2022-09-23T18:46:15.685Z,100.00
2022-09-23T18:49:01.939Z,100.00
2022-09-23T18:51:32.163Z,100.00
2022-09-23T18:54:02.306Z,100.00
2022-09-23T18:56:33.554Z,100.00
2022-09-23T18:59:02.342Z,100.00
2022-09-23T19:01:32.033Z,100.00
2022-09-23T19:04:02.270Z,100.00
2022-09-23T19:06:32.997Z,100.00
2022-09-23T19:09:01.197Z,100.00
2022-09-23T19:11:29.529Z,100.00
2022-09-23T19:14:00.511Z,100.00
2022-09-23T19:16:29.391Z,100.00
2022-09-23T19:18:59.887Z,100.00
2022-09-23T19:21:29.351Z,100.00
2022-09-23T19:24:00.375Z,100.00
2022-09-23T19:26:31.750Z,100.00
2022-09-23T19:29:01.496Z,100.00
2022-09-23T19:31:31.532Z,100.00
2022-09-23T19:34:02.699Z,100.00
2022-09-23T19:36:32.461Z,100.00
2022-09-23T19:39:02.804Z,100.00
2022-09-23T19:41:33.406Z,100.00
2022-09-23T19:44:03.637Z,100.00
2022-09-23T19:46:32.501Z,100.00
2022-09-23T19:49:03.491Z,100.00
2022-09-23T19:51:33.993Z,100.00
2022-09-23T19:54:02.762Z,100.00
2022-09-23T19:56:32.005Z,100.00
2022-09-23T19:59:03.052Z,100.00
2022-09-23T20:01:32.515Z,100.00
2022-09-23T20:04:02.694Z,100.00
2022-09-23T20:06:31.512Z,100.00
2022-09-23T20:09:00.921Z,100.00
2022-09-23T20:11:32.512Z,100.00
2022-09-23T20:14:04.816Z,100.00
2022-09-23T20:16:35.269Z,100.00
2022-09-23T20:19:05.674Z,100.00
2022-09-23T20:21:34.578Z,100.00
2022-09-23T20:24:06.484Z,100.00
2022-09-23T20:26:52.379Z,100.00
2022-09-23T20:29:20.461Z,100.00
2022-09-23T20:31:49.022Z,100.00
2022-09-23T20:34:18.778Z,100.00
2022-09-23T20:36:46.956Z,100.00
2022-09-23T20:39:14.978Z,100.00
2022-09-23T20:41:43.363Z,100.00
2022-09-23T20:44:14.067Z,100.00
2022-09-23T20:46:47.768Z,100.00
2022-09-23T20:49:18.731Z,100.00
2022-09-23T20:51:48.719Z,100.00
2022-09-23T20:54:19.014Z,100.00
2022-09-23T20:56:47.154Z,100.00
2022-09-23T20:59:17.703Z,100.00
2022-09-23T21:01:47.706Z,100.00
2022-09-23T21:04:16.221Z,100.00
2022-09-23T21:06:45.823Z,100.00
2022-09-23T21:09:13.893Z,100.00
2022-09-23T21:11:42.016Z,100.00
2022-09-23T21:14:10.780Z,100.00
2022-09-23T21:16:41.562Z,100.00
2022-09-23T21:19:09.732Z,100.00
2022-09-23T21:21:37.817Z,100.00
2022-09-23T21:24:40.080Z,100.00
2022-09-23T21:26:57.760Z,100.00
2022-09-23T21:29:28.092Z,100.00
2022-09-23T21:31:56.146Z,100.00
2022-09-23T21:34:26.132Z,100.00
2022-09-23T21:36:54.568Z,100.00
2022-09-23T21:39:23.970Z,100.00
2022-09-23T21:41:52.112Z,100.00
2022-09-23T21:44:20.264Z,100.00
2022-09-23T21:46:49.618Z,100.00
2022-09-23T21:49:17.942Z,100.00
2022-09-23T21:51:46.077Z,100.00
2022-09-23T21:54:18.055Z,100.00
2022-09-23T21:56:47.677Z,100.00
2022-09-23T21:59:15.713Z,100.00
2022-09-23T22:01:45.114Z,100.00
2022-09-23T22:04:17.242Z,100.00
2022-09-23T22:06:46.715Z,100.00
2022-09-23T22:09:17.013Z,100.00
2022-09-23T22:12:03.009Z,100.00
2022-09-23T22:14:32.834Z,100.00
2022-09-23T22:17:02.731Z,100.00
2022-09-23T22:19:35.018Z,100.00
2022-09-23T22:22:07.044Z,100.00
2022-09-23T22:24:35.163Z,100.00
2022-09-23T22:27:03.151Z,100.00
2022-09-23T22:29:49.963Z,100.00
2022-09-23T22:32:35.273Z,100.00
2022-09-23T22:35:03.553Z,100.00
2022-09-23T22:37:34.362Z,100.00
2022-09-23T22:40:02.938Z,100.00
2022-09-23T22:42:31.352Z,100.00
2022-09-23T22:45:05.958Z,100.00
2022-09-23T22:47:36.885Z,100.00
2022-09-23T22:50:05.266Z,100.00
2022-09-23T22:52:33.948Z,100.00
2022-09-23T22:55:04.640Z,100.00
2022-09-23T22:57:32.672Z,100.00
2022-09-23T23:00:00.747Z,100.00
2022-09-23T23:02:31.503Z,100.00
2022-09-23T23:05:00.460Z,100.00
2022-09-23T23:07:28.469Z,100.00
2022-09-23T23:09:56.497Z,100.00
2022-09-23T23:12:24.706Z,100.00
2022-09-23T23:14:52.863Z,100.00
2022-09-23T23:17:21.823Z,100.00
2022-09-23T23:19:51.637Z,100.00
2022-09-23T23:22:20.026Z,100.00
2022-09-23T23:24:48.079Z,100.00
2022-09-23T23:27:16.156Z,100.00
2022-09-23T23:29:44.152Z,100.00
2022-09-23T23:32:12.151Z,100.00
2022-09-23T23:34:40.156Z,100.00
2022-09-23T23:37:09.611Z,100.00
2022-09-23T23:39:37.697Z,100.00
2022-09-23T23:42:08.245Z,100.00
2022-09-23T23:44:36.931Z,100.00
2022-09-23T23:47:05.083Z,100.00
2022-09-23T23:49:33.237Z,100.00
2022-09-23T23:52:01.586Z,100.00
2022-09-23T23:54:32.226Z,100.00
2022-09-23T23:57:00.369Z,100.00
2022-09-23T23:59:28.390Z,100.00
